Aberdeen, Idaho
Current Conditions -  °F | °C
As of 6:53 AM on Sunday 23 Nov 2014 (Local Time) from KPIH Reporting Station
Few Clouds Few Clouds  
Wind Chill: 17°   Ceiling: Unl
Heat Index: 29°   Visibility: 10mi
Dew Point: 26°   Wind: 17mph
Humidity: 89%   Direction: 220°SW
Pressure: 30.11"   Gusts: NA
Location:  42.94°N, 112.84°W
Report Text: KPIH 231353Z 22015KT 10SM FEW040 M02/M03 A3011 RMK AO2 SLP216 T10171033
Loading
Personal Weather Stations






























Interactive Weather Map New forecast layout! Learn more

10-Day Weather Forecast

Advertisements
Track Severe Weather on mobile